Columbia, Missouri
Current Conditions -  °F | °C
As of 8:16 AM on Monday 22 Dec 2014 (Local Time) from KCOU Reporting Station
Haze Haze  
Wind Chill: 34°   Ceiling: 400
Heat Index: 40°   Visibility: 2.5mi
Dew Point: 39°   Wind: 8mph
Humidity: 97%   Direction: 120°ESE
Pressure: 29.67"   Gusts: NA
Location:  38.95°N, 92.33°W
Report Text: KCOU 221416Z 12007KT 2 1/2SM BR BKN004 OVC009 04/04 A2967 RMK AO2 CIG 003V008 T00440039
Loading
Personal Weather Stations






























Interactive Weather Map New forecast layout! Learn more

10-Day Weather Forecast

Advertisements
Track Severe Weather on mobile